sensor_id;sensor_type;location;lat;lon;timestamp;P1;durP1;ratioP1;P2;durP2;ratioP2
7211;SDS011;3647;48.792;9.802;2023-04-15T04:53:18;7.83;;;6.40;;
7211;SDS011;3647;48.792;9.802;2023-04-15T04:55:45;10.77;;;7.43;;
7211;SDS011;3647;48.792;9.802;2023-04-15T04:58:12;7.93;;;6.93;;
7211;SDS011;3647;48.792;9.802;2023-04-15T05:00:39;7.33;;;6.27;;
7211;SDS011;3647;48.792;9.802;2023-04-15T05:03:07;9.37;;;6.73;;
7211;SDS011;3647;48.792;9.802;2023-04-15T05:05:34;7.23;;;5.70;;
7211;SDS011;3647;48.792;9.802;2023-04-15T05:08:03;7.33;;;6.23;;
7211;SDS011;3647;48.792;9.802;2023-04-15T05:10:32;7.70;;;6.83;;
7211;SDS011;3647;48.792;9.802;2023-04-15T05:12:59;8.67;;;6.03;;
7211;SDS011;3647;48.792;9.802;2023-04-15T05:15:26;9.20;;;8.17;;
7211;SDS011;3647;48.792;9.802;2023-04-15T05:17:53;9.67;;;5.90;;
7211;SDS011;3647;48.792;9.802;2023-04-15T05:20:19;8.73;;;5.67;;
7211;SDS011;3647;48.792;9.802;2023-04-15T05:22:46;6.37;;;5.57;;
7211;SDS011;3647;48.792;9.802;2023-04-15T05:25:13;6.13;;;5.30;;
7211;SDS011;3647;48.792;9.802;2023-04-15T05:27:41;7.03;;;5.33;;
7211;SDS011;3647;48.792;9.802;2023-04-15T05:30:08;7.07;;;6.00;;
7211;SDS011;3647;48.792;9.802;2023-04-15T05:32:36;6.67;;;5.70;;
7211;SDS011;3647;48.792;9.802;2023-04-15T05:35:03;10.40;;;8.33;;
7211;SDS011;3647;48.792;9.802;2023-04-15T05:37:30;11.70;;;8.03;;
7211;SDS011;3647;48.792;9.802;2023-04-15T05:39:57;15.47;;;10.10;;
7211;SDS011;3647;48.792;9.802;2023-04-15T05:42:24;9.90;;;7.53;;
7211;SDS011;3647;48.792;9.802;2023-04-15T05:44:52;10.17;;;7.40;;
7211;SDS011;3647;48.792;9.802;2023-04-15T05:47:19;10.37;;;7.17;;
7211;SDS011;3647;48.792;9.802;2023-04-15T05:49:45;6.27;;;5.67;;
7211;SDS011;3647;48.792;9.802;2023-04-15T05:52:12;15.87;;;10.47;;
7211;SDS011;3647;48.792;9.802;2023-04-15T05:54:39;12.27;;;8.60;;
7211;SDS011;3647;48.792;9.802;2023-04-15T05:57:05;14.97;;;9.87;;
7211;SDS011;3647;48.792;9.802;2023-04-15T05:59:32;11.80;;;8.53;;
7211;SDS011;3647;48.792;9.802;2023-04-15T06:02:00;13.40;;;8.60;;
7211;SDS011;3647;48.792;9.802;2023-04-15T06:04:27;13.93;;;9.10;;
7211;SDS011;3647;48.792;9.802;2023-04-15T06:06:55;12.43;;;8.03;;
7211;SDS011;3647;48.792;9.802;2023-04-15T06:09:22;12.40;;;9.57;;
7211;SDS011;3647;48.792;9.802;2023-04-15T06:11:48;10.97;;;7.87;;
7211;SDS011;3647;48.792;9.802;2023-04-15T06:14:16;11.00;;;7.30;;
7211;SDS011;3647;48.792;9.802;2023-04-15T06:16:43;8.13;;;7.23;;
7211;SDS011;3647;48.792;9.802;2023-04-15T06:19:11;10.20;;;7.80;;
7211;SDS011;3647;48.792;9.802;2023-04-15T06:21:38;9.43;;;6.87;;
7211;SDS011;3647;48.792;9.802;2023-04-15T06:24:05;8.07;;;7.27;;
7211;SDS011;3647;48.792;9.802;2023-04-15T06:26:32;8.30;;;7.10;;
7211;SDS011;3647;48.792;9.802;2023-04-15T06:28:59;8.23;;;7.20;;
7211;SDS011;3647;48.792;9.802;2023-04-15T06:31:26;9.17;;;7.00;;
7211;SDS011;3647;48.792;9.802;2023-04-15T06:33:53;7.67;;;6.27;;
7211;SDS011;3647;48.792;9.802;2023-04-15T06:36:21;11.07;;;7.40;;
7211;SDS011;3647;48.792;9.802;2023-04-15T06:38:48;10.00;;;7.13;;
7211;SDS011;3647;48.792;9.802;2023-04-15T06:41:15;10.67;;;7.00;;
7211;SDS011;3647;48.792;9.802;2023-04-15T06:43:41;8.17;;;6.30;;
7211;SDS011;3647;48.792;9.802;2023-04-15T06:46:08;9.23;;;6.37;;
7211;SDS011;3647;48.792;9.802;2023-04-15T06:48:35;8.97;;;6.30;;
7211;SDS011;3647;48.792;9.802;2023-04-15T06:51:02;7.07;;;6.33;;
7211;SDS011;3647;48.792;9.802;2023-04-15T06:53:30;7.60;;;4.40;;
7211;SDS011;3647;48.792;9.802;2023-04-15T06:55:57;5.40;;;4.60;;
7211;SDS011;3647;48.792;9.802;2023-04-15T06:58:24;5.87;;;5.37;;
7211;SDS011;3647;48.792;9.802;2023-04-15T07:00:51;7.33;;;5.57;;
7211;SDS011;3647;48.792;9.802;2023-04-15T07:03:18;8.60;;;4.97;;
7211;SDS011;3647;48.792;9.802;2023-04-15T07:05:45;5.07;;;4.60;;
7211;SDS011;3647;48.792;9.802;2023-04-15T07:08:12;5.07;;;4.57;;
7211;SDS011;3647;48.792;9.802;2023-04-15T07:10:40;7.50;;;4.57;;
7211;SDS011;3647;48.792;9.802;2023-04-15T07:13:06;7.30;;;5.10;;
7211;SDS011;3647;48.792;9.802;2023-04-15T07:15:33;7.10;;;4.70;;
7211;SDS011;3647;48.792;9.802;2023-04-15T07:18:00;4.63;;;4.20;;
7211;SDS011;3647;48.792;9.802;2023-04-15T07:20:27;6.23;;;4.97;;
7211;SDS011;3647;48.792;9.802;2023-04-15T07:22:54;7.23;;;5.03;;
7211;SDS011;3647;48.792;9.802;2023-04-15T07:25:21;4.70;;;4.30;;
7211;SDS011;3647;48.792;9.802;2023-04-15T07:27:49;8.20;;;5.13;;
7211;SDS011;3647;48.792;9.802;2023-04-15T07:30:16;5.13;;;4.40;;
7211;SDS011;3647;48.792;9.802;2023-04-15T07:32:43;10.87;;;4.40;;
7211;SDS011;3647;48.792;9.802;2023-04-15T07:35:10;4.40;;;3.40;;
7211;SDS011;3647;48.792;9.802;2023-04-15T07:37:37;7.83;;;4.47;;
7211;SDS011;3647;48.792;9.802;2023-04-15T07:40:04;6.13;;;4.00;;
7211;SDS011;3647;48.792;9.802;2023-04-15T07:42:33;8.47;;;4.20;;
7211;SDS011;3647;48.792;9.802;2023-04-15T07:45:02;5.60;;;4.07;;
7211;SDS011;3647;48.792;9.802;2023-04-15T07:47:29;5.17;;;4.13;;
7211;SDS011;3647;48.792;9.802;2023-04-15T07:49:56;5.90;;;3.80;;
7211;SDS011;3647;48.792;9.802;2023-04-15T07:52:22;6.03;;;3.93;;
7211;SDS011;3647;48.792;9.802;2023-04-15T07:54:49;8.10;;;3.57;;
7211;SDS011;3647;48.792;9.802;2023-04-15T07:57:16;5.07;;;3.73;;
7211;SDS011;3647;48.792;9.802;2023-04-15T07:59:43;4.30;;;3.47;;
7211;SDS011;3647;48.792;9.802;2023-04-15T08:02:11;4.60;;;3.73;;
7211;SDS011;3647;48.792;9.802;2023-04-15T08:04:39;5.87;;;3.80;;
7211;SDS011;3647;48.792;9.802;2023-04-15T08:07:06;5.30;;;4.43;;
7211;SDS011;3647;48.792;9.802;2023-04-15T08:09:32;6.53;;;4.10;;
7211;SDS011;3647;48.792;9.802;2023-04-15T08:11:59;6.20;;;3.67;;
7211;SDS011;3647;48.792;9.802;2023-04-15T08:14:27;5.47;;;3.53;;
7211;SDS011;3647;48.792;9.802;2023-04-15T08:16:54;5.93;;;3.57;;
7211;SDS011;3647;48.792;9.802;2023-04-15T08:19:23;6.47;;;3.70;;
7211;SDS011;3647;48.792;9.802;2023-04-15T08:21:50;4.83;;;2.97;;
7211;SDS011;3647;48.792;9.802;2023-04-15T08:24:16;3.87;;;2.97;;
7211;SDS011;3647;48.792;9.802;2023-04-15T08:26:43;8.23;;;3.27;;
7211;SDS011;3647;48.792;9.802;2023-04-15T08:29:10;5.50;;;3.23;;
7211;SDS011;3647;48.792;9.802;2023-04-15T08:31:37;5.17;;;3.30;;
7211;SDS011;3647;48.792;9.802;2023-04-15T08:34:04;5.10;;;3.30;;
7211;SDS011;3647;48.792;9.802;2023-04-15T08:36:32;4.37;;;3.17;;
7211;SDS011;3647;48.792;9.802;2023-04-15T08:38:59;6.47;;;3.03;;
7211;SDS011;3647;48.792;9.802;2023-04-15T08:41:27;7.70;;;3.20;;
7211;SDS011;3647;48.792;9.802;2023-04-15T08:44:00;4.50;;;3.40;;
7211;SDS011;3647;48.792;9.802;2023-04-15T08:46:29;5.20;;;3.03;;
7211;SDS011;3647;48.792;9.802;2023-04-15T08:48:58;5.73;;;3.20;;
7211;SDS011;3647;48.792;9.802;2023-04-15T08:51:25;3.97;;;2.93;;
7211;SDS011;3647;48.792;9.802;2023-04-15T08:53:53;4.10;;;3.30;;
7211;SDS011;3647;48.792;9.802;2023-04-15T08:56:22;6.13;;;3.50;;
7211;SDS011;3647;48.792;9.802;2023-04-15T08:58:50;6.00;;;3.23;;
7211;SDS011;3647;48.792;9.802;2023-04-15T09:01:18;4.43;;;2.80;;
7211;SDS011;3647;48.792;9.802;2023-04-15T09:03:45;5.27;;;3.53;;
7211;SDS011;3647;48.792;9.802;2023-04-15T09:06:14;3.67;;;2.83;;
7211;SDS011;3647;48.792;9.802;2023-04-15T09:08:42;5.70;;;2.93;;
7211;SDS011;3647;48.792;9.802;2023-04-15T09:11:10;4.03;;;3.13;;
7211;SDS011;3647;48.792;9.802;2023-04-15T09:13:37;4.57;;;3.00;;
7211;SDS011;3647;48.792;9.802;2023-04-15T09:16:04;3.00;;;2.63;;
7211;SDS011;3647;48.792;9.802;2023-04-15T09:18:33;3.17;;;2.50;;
7211;SDS011;3647;48.792;9.802;2023-04-15T09:21:04;5.77;;;2.97;;
7211;SDS011;3647;48.792;9.802;2023-04-15T09:23:32;5.50;;;2.73;;
7211;SDS011;3647;48.792;9.802;2023-04-15T09:25:59;7.67;;;2.90;;
7211;SDS011;3647;48.792;9.802;2023-04-15T09:28:28;4.07;;;2.80;;
7211;SDS011;3647;48.792;9.802;2023-04-15T09:30:56;3.23;;;2.50;;
7211;SDS011;3647;48.792;9.802;2023-04-15T09:33:23;4.03;;;2.70;;
7211;SDS011;3647;48.792;9.802;2023-04-15T09:35:58;3.23;;;2.50;;
7211;SDS011;3647;48.792;9.802;2023-04-15T09:38:26;5.40;;;2.70;;
7211;SDS011;3647;48.792;9.802;2023-04-15T09:40:53;5.80;;;3.00;;
7211;SDS011;3647;48.792;9.802;2023-04-15T09:43:20;5.70;;;2.53;;
7211;SDS011;3647;48.792;9.802;2023-04-15T09:45:48;3.77;;;2.30;;
7211;SDS011;3647;48.792;9.802;2023-04-15T09:48:18;5.70;;;2.87;;
7211;SDS011;3647;48.792;9.802;2023-04-15T09:50:46;3.37;;;2.90;;
7211;SDS011;3647;48.792;9.802;2023-04-15T09:53:15;2.70;;;2.50;;
7211;SDS011;3647;48.792;9.802;2023-04-15T09:55:44;2.87;;;2.63;;
7211;SDS011;3647;48.792;9.802;2023-04-15T09:58:18;5.47;;;2.73;;
7211;SDS011;3647;48.792;9.802;2023-04-15T10:00:46;3.87;;;3.00;;
7211;SDS011;3647;48.792;9.802;2023-04-15T10:03:17;4.23;;;2.80;;
7211;SDS011;3647;48.792;9.802;2023-04-15T10:05:46;2.90;;;2.60;;
7211;SDS011;3647;48.792;9.802;2023-04-15T10:08:14;6.10;;;3.20;;
7211;SDS011;3647;48.792;9.802;2023-04-15T10:10:44;3.87;;;2.80;;
7211;SDS011;3647;48.792;9.802;2023-04-15T10:13:12;4.80;;;3.13;;
7211;SDS011;3647;48.792;9.802;2023-04-15T10:15:40;3.13;;;2.67;;
7211;SDS011;3647;48.792;9.802;2023-04-15T10:18:10;3.43;;;2.63;;
7211;SDS011;3647;48.792;9.802;2023-04-15T10:20:41;3.20;;;2.47;;
7211;SDS011;3647;48.792;9.802;2023-04-15T10:23:08;3.17;;;2.70;;
7211;SDS011;3647;48.792;9.802;2023-04-15T10:25:37;3.33;;;3.00;;
7211;SDS011;3647;48.792;9.802;2023-04-15T10:28:05;4.27;;;3.10;;
7211;SDS011;3647;48.792;9.802;2023-04-15T10:30:32;5.00;;;3.33;;
7211;SDS011;3647;48.792;9.802;2023-04-15T10:33:00;5.57;;;3.20;;
7211;SDS011;3647;48.792;9.802;2023-04-15T10:35:31;5.27;;;3.50;;
7211;SDS011;3647;48.792;9.802;2023-04-15T10:37:59;4.37;;;3.20;;
7211;SDS011;3647;48.792;9.802;2023-04-15T10:40:26;5.00;;;3.27;;
7211;SDS011;3647;48.792;9.802;2023-04-15T10:42:56;7.00;;;3.20;;
7211;SDS011;3647;48.792;9.802;2023-04-15T10:45:27;3.57;;;2.87;;
7211;SDS011;3647;48.792;9.802;2023-04-15T10:47:57;8.03;;;3.80;;
7211;SDS011;3647;48.792;9.802;2023-04-15T10:50:27;6.13;;;3.53;;
7211;SDS011;3647;48.792;9.802;2023-04-15T10:52:57;4.23;;;3.80;;
7211;SDS011;3647;48.792;9.802;2023-04-15T10:55:30;3.93;;;3.20;;
7211;SDS011;3647;48.792;9.802;2023-04-15T10:57:58;5.00;;;3.30;;
7211;SDS011;3647;48.792;9.802;2023-04-15T11:00:27;5.83;;;3.80;;
7211;SDS011;3647;48.792;9.802;2023-04-15T11:02:56;4.00;;;3.57;;
7211;SDS011;3647;48.792;9.802;2023-04-15T11:05:47;5.83;;;3.60;;
7211;SDS011;3647;48.792;9.802;2023-04-15T11:08:16;4.40;;;3.20;;
7211;SDS011;3647;48.792;9.802;2023-04-15T11:10:52;4.07;;;3.50;;
7211;SDS011;3647;48.792;9.802;2023-04-15T11:13:23;7.83;;;3.90;;
7211;SDS011;3647;48.792;9.802;2023-04-15T11:15:54;5.03;;;3.67;;
7211;SDS011;3647;48.792;9.802;2023-04-15T11:18:24;5.47;;;3.47;;
7211;SDS011;3647;48.792;9.802;2023-04-15T11:20:53;5.53;;;3.60;;
7211;SDS011;3647;48.792;9.802;2023-04-15T11:23:27;4.60;;;3.67;;
7211;SDS011;3647;48.792;9.802;2023-04-15T11:25:56;5.33;;;4.13;;
7211;SDS011;3647;48.792;9.802;2023-04-15T11:28:24;5.27;;;3.90;;
7211;SDS011;3647;48.792;9.802;2023-04-15T11:30:53;8.47;;;4.20;;
7211;SDS011;3647;48.792;9.802;2023-04-15T11:33:20;5.37;;;3.60;;
7211;SDS011;3647;48.792;9.802;2023-04-15T11:35:48;4.73;;;3.80;;
7211;SDS011;3647;48.792;9.802;2023-04-15T11:38:15;7.43;;;3.23;;
7211;SDS011;3647;48.792;9.802;2023-04-15T11:40:43;5.73;;;4.50;;
7211;SDS011;3647;48.792;9.802;2023-04-15T11:43:10;4.97;;;4.17;;
7211;SDS011;3647;48.792;9.802;2023-04-15T11:45:46;5.93;;;4.27;;
7211;SDS011;3647;48.792;9.802;2023-04-15T11:48:15;4.93;;;4.00;;
7211;SDS011;3647;48.792;9.802;2023-04-15T11:50:42;5.63;;;4.07;;
7211;SDS011;3647;48.792;9.802;2023-04-15T11:53:10;5.97;;;4.33;;
7211;SDS011;3647;48.792;9.802;2023-04-15T11:55:41;4.57;;;4.03;;
7211;SDS011;3647;48.792;9.802;2023-04-15T11:58:11;4.60;;;3.73;;
7211;SDS011;3647;48.792;9.802;2023-04-15T12:00:40;5.20;;;3.97;;
7211;SDS011;3647;48.792;9.802;2023-04-15T12:03:12;5.17;;;3.57;;
7211;SDS011;3647;48.792;9.802;2023-04-15T12:06:02;5.03;;;3.47;;
7211;SDS011;3647;48.792;9.802;2023-04-15T12:08:55;5.23;;;3.47;;
7211;SDS011;3647;48.792;9.802;2023-04-15T12:11:28;3.47;;;2.80;;
7211;SDS011;3647;48.792;9.802;2023-04-15T12:14:03;2.70;;;2.50;;
7211;SDS011;3647;48.792;9.802;2023-04-15T12:16:32;4.50;;;2.47;;
7211;SDS011;3647;48.792;9.802;2023-04-15T12:19:03;4.13;;;2.20;;
7211;SDS011;3647;48.792;9.802;2023-04-15T12:21:35;3.93;;;2.63;;
7211;SDS011;3647;48.792;9.802;2023-04-15T12:24:04;4.93;;;2.77;;
7211;SDS011;3647;48.792;9.802;2023-04-15T12:26:33;2.70;;;2.50;;
7211;SDS011;3647;48.792;9.802;2023-04-15T12:29:05;3.10;;;2.47;;
7211;SDS011;3647;48.792;9.802;2023-04-15T12:31:33;2.57;;;2.10;;
7211;SDS011;3647;48.792;9.802;2023-04-15T12:34:01;2.70;;;2.50;;
7211;SDS011;3647;48.792;9.802;2023-04-15T12:36:31;3.03;;;2.47;;
7211;SDS011;3647;48.792;9.802;2023-04-15T12:39:03;3.30;;;2.60;;
7211;SDS011;3647;48.792;9.802;2023-04-15T12:41:30;5.07;;;2.80;;
7211;SDS011;3647;48.792;9.802;2023-04-15T12:43:57;3.03;;;2.70;;
7211;SDS011;3647;48.792;9.802;2023-04-15T12:46:26;4.30;;;2.60;;
7211;SDS011;3647;48.792;9.802;2023-04-15T12:48:53;4.50;;;2.70;;
7211;SDS011;3647;48.792;9.802;2023-04-15T12:51:20;5.17;;;2.43;;
7211;SDS011;3647;48.792;9.802;2023-04-15T12:53:46;3.53;;;2.37;;
7211;SDS011;3647;48.792;9.802;2023-04-15T12:56:13;2.50;;;2.30;;
7211;SDS011;3647;48.792;9.802;2023-04-15T12:58:40;3.47;;;2.30;;
7211;SDS011;3647;48.792;9.802;2023-04-15T13:01:08;2.83;;;2.60;;
7211;SDS011;3647;48.792;9.802;2023-04-15T13:03:36;3.87;;;2.57;;
7211;SDS011;3647;48.792;9.802;2023-04-15T13:06:03;3.33;;;3.00;;
7211;SDS011;3647;48.792;9.802;2023-04-15T13:08:30;5.13;;;2.93;;
7211;SDS011;3647;48.792;9.802;2023-04-15T13:10:58;3.03;;;2.50;;
7211;SDS011;3647;48.792;9.802;2023-04-15T13:13:25;4.60;;;2.27;;
7211;SDS011;3647;48.792;9.802;2023-04-15T13:15:52;3.03;;;2.23;;
7211;SDS011;3647;48.792;9.802;2023-04-15T13:18:19;4.20;;;2.70;;
7211;SDS011;3647;48.792;9.802;2023-04-15T13:20:49;3.17;;;2.87;;
7211;SDS011;3647;48.792;9.802;2023-04-15T13:23:16;4.43;;;3.00;;
7211;SDS011;3647;48.792;9.802;2023-04-15T13:25:42;3.70;;;3.13;;
7211;SDS011;3647;48.792;9.802;2023-04-15T13:28:10;3.17;;;2.50;;
7211;SDS011;3647;48.792;9.802;2023-04-15T13:30:37;3.43;;;2.40;;
7211;SDS011;3647;48.792;9.802;2023-04-15T13:33:04;4.40;;;2.23;;
7211;SDS011;3647;48.792;9.802;2023-04-15T13:35:32;2.70;;;2.17;;
7211;SDS011;3647;48.792;9.802;2023-04-15T13:38:01;3.47;;;2.07;;
7211;SDS011;3647;48.792;9.802;2023-04-15T13:40:28;3.27;;;2.13;;
7211;SDS011;3647;48.792;9.802;2023-04-15T13:42:55;2.57;;;2.33;;
7211;SDS011;3647;48.792;9.802;2023-04-15T13:45:22;2.60;;;2.30;;
7211;SDS011;3647;48.792;9.802;2023-04-15T13:47:49;3.20;;;1.80;;
7211;SDS011;3647;48.792;9.802;2023-04-15T13:50:16;4.27;;;1.90;;
7211;SDS011;3647;48.792;9.802;2023-04-15T13:52:44;2.10;;;1.70;;
7211;SDS011;3647;48.792;9.802;2023-04-15T13:55:13;2.10;;;1.90;;
7211;SDS011;3647;48.792;9.802;2023-04-15T13:57:40;1.70;;;1.60;;
7211;SDS011;3647;48.792;9.802;2023-04-15T14:00:08;1.90;;;1.60;;
7211;SDS011;3647;48.792;9.802;2023-04-15T14:02:35;2.87;;;1.60;;
7211;SDS011;3647;48.792;9.802;2023-04-15T14:05:03;2.47;;;1.90;;
7211;SDS011;3647;48.792;9.802;2023-04-15T14:07:30;2.40;;;1.63;;
7211;SDS011;3647;48.792;9.802;2023-04-15T14:09:59;1.70;;;1.60;;
7211;SDS011;3647;48.792;9.802;2023-04-15T14:12:28;1.53;;;1.43;;
7211;SDS011;3647;48.792;9.802;2023-04-15T14:14:55;1.83;;;1.53;;
7211;SDS011;3647;48.792;9.802;2023-04-15T14:17:26;1.90;;;1.57;;
7211;SDS011;3647;48.792;9.802;2023-04-15T14:19:53;1.33;;;1.23;;
7211;SDS011;3647;48.792;9.802;2023-04-15T14:22:22;2.83;;;1.57;;
7211;SDS011;3647;48.792;9.802;2023-04-15T14:24:53;4.63;;;1.70;;
7211;SDS011;3647;48.792;9.802;2023-04-15T14:27:20;1.70;;;1.60;;
7211;SDS011;3647;48.792;9.802;2023-04-15T14:29:55;2.10;;;1.40;;
7211;SDS011;3647;48.792;9.802;2023-04-15T14:32:24;1.63;;;1.40;;
7211;SDS011;3647;48.792;9.802;2023-04-15T14:34:51;1.77;;;1.53;;
7211;SDS011;3647;48.792;9.802;2023-04-15T14:37:20;1.50;;;1.40;;
7211;SDS011;3647;48.792;9.802;2023-04-15T14:39:50;1.37;;;1.30;;
7211;SDS011;3647;48.792;9.802;2023-04-15T14:42:20;2.20;;;1.80;;
7211;SDS011;3647;48.792;9.802;2023-04-15T14:45:01;1.40;;;1.30;;
7211;SDS011;3647;48.792;9.802;2023-04-15T14:50:09;1.73;;;1.63;;
7211;SDS011;3647;48.792;9.802;2023-04-15T14:52:40;1.80;;;1.70;;
7211;SDS011;3647;48.792;9.802;2023-04-15T14:55:08;2.73;;;2.53;;
7211;SDS011;3647;48.792;9.802;2023-04-15T14:57:40;1.83;;;1.73;;
7211;SDS011;3647;48.792;9.802;2023-04-15T15:00:10;3.03;;;2.03;;
7211;SDS011;3647;48.792;9.802;2023-04-15T15:02:38;2.07;;;1.93;;
7211;SDS011;3647;48.792;9.802;2023-04-15T15:05:06;2.10;;;1.90;;
7211;SDS011;3647;48.792;9.802;2023-04-15T15:07:34;2.77;;;1.60;;
7211;SDS011;3647;48.792;9.802;2023-04-15T15:10:01;2.00;;;1.80;;
7211;SDS011;3647;48.792;9.802;2023-04-15T15:12:29;2.30;;;1.90;;
7211;SDS011;3647;48.792;9.802;2023-04-15T15:14:55;2.73;;;1.73;;
7211;SDS011;3647;48.792;9.802;2023-04-15T15:17:24;2.10;;;2.00;;
7211;SDS011;3647;48.792;9.802;2023-04-15T15:19:52;3.87;;;3.30;;
7211;SDS011;3647;48.792;9.802;2023-04-15T15:22:19;2.60;;;2.23;;
7211;SDS011;3647;48.792;9.802;2023-04-15T15:24:57;1.90;;;1.60;;
7211;SDS011;3647;48.792;9.802;2023-04-15T15:27:26;1.60;;;1.50;;
7211;SDS011;3647;48.792;9.802;2023-04-15T15:29:52;2.53;;;2.27;;
7211;SDS011;3647;48.792;9.802;2023-04-15T15:32:21;1.97;;;1.87;;
7211;SDS011;3647;48.792;9.802;2023-04-15T15:34:49;2.73;;;2.53;;
7211;SDS011;3647;48.792;9.802;2023-04-15T15:37:16;3.67;;;3.37;;
7211;SDS011;3647;48.792;9.802;2023-04-15T15:39:43;3.50;;;3.20;;
7211;SDS011;3647;48.792;9.802;2023-04-15T15:42:10;2.63;;;2.43;;
7211;SDS011;3647;48.792;9.802;2023-04-15T15:44:37;3.47;;;3.17;;
7211;SDS011;3647;48.792;9.802;2023-04-15T15:47:04;6.47;;;5.60;;
7211;SDS011;3647;48.792;9.802;2023-04-15T15:49:30;5.37;;;4.43;;
7211;SDS011;3647;48.792;9.802;2023-04-15T15:51:59;4.23;;;3.87;;
7211;SDS011;3647;48.792;9.802;2023-04-15T15:54:25;5.17;;;3.93;;
7211;SDS011;3647;48.792;9.802;2023-04-15T15:56:53;3.03;;;2.83;;
7211;SDS011;3647;48.792;9.802;2023-04-15T15:59:27;5.57;;;4.87;;
7211;SDS011;3647;48.792;9.802;2023-04-15T16:01:54;6.67;;;5.90;;
7211;SDS011;3647;48.792;9.802;2023-04-15T16:04:21;3.07;;;2.77;;
7211;SDS011;3647;48.792;9.802;2023-04-15T16:06:48;3.90;;;2.80;;
7211;SDS011;3647;48.792;9.802;2023-04-15T16:09:19;2.93;;;2.60;;
7211;SDS011;3647;48.792;9.802;2023-04-15T16:11:51;3.63;;;3.10;;
7211;SDS011;3647;48.792;9.802;2023-04-15T16:14:20;8.50;;;6.83;;
7211;SDS011;3647;48.792;9.802;2023-04-15T16:16:46;2.90;;;2.70;;
7211;SDS011;3647;48.792;9.802;2023-04-15T16:19:13;3.73;;;3.03;;
7211;SDS011;3647;48.792;9.802;2023-04-15T16:21:41;4.27;;;2.90;;
7211;SDS011;3647;48.792;9.802;2023-04-15T16:24:08;3.20;;;2.90;;
7211;SDS011;3647;48.792;9.802;2023-04-15T16:26:37;3.17;;;2.87;;
7211;SDS011;3647;48.792;9.802;2023-04-15T16:29:05;3.70;;;3.40;;
7211;SDS011;3647;48.792;9.802;2023-04-15T16:31:31;4.03;;;3.73;;
7211;SDS011;3647;48.792;9.802;2023-04-15T16:34:01;3.20;;;3.00;;
7211;SDS011;3647;48.792;9.802;2023-04-15T16:36:28;5.43;;;2.90;;
7211;SDS011;3647;48.792;9.802;2023-04-15T16:38:55;5.70;;;5.20;;
7211;SDS011;3647;48.792;9.802;2023-04-15T16:41:22;6.03;;;3.97;;
7211;SDS011;3647;48.792;9.802;2023-04-15T16:43:50;4.50;;;4.13;;
7211;SDS011;3647;48.792;9.802;2023-04-15T16:46:18;6.53;;;5.07;;
7211;SDS011;3647;48.792;9.802;2023-04-15T16:48:45;5.50;;;4.20;;
7211;SDS011;3647;48.792;9.802;2023-04-15T16:51:11;4.53;;;4.13;;
7211;SDS011;3647;48.792;9.802;2023-04-15T16:53:38;3.07;;;2.87;;
7211;SDS011;3647;48.792;9.802;2023-04-15T16:56:05;3.20;;;2.90;;
7211;SDS011;3647;48.792;9.802;2023-04-15T16:58:33;3.27;;;2.97;;
7211;SDS011;3647;48.792;9.802;2023-04-15T17:01:01;3.13;;;2.87;;
7211;SDS011;3647;48.792;9.802;2023-04-15T17:03:28;3.67;;;2.90;;
7211;SDS011;3647;48.792;9.802;2023-04-15T17:05:56;3.13;;;2.83;;
7211;SDS011;3647;48.792;9.802;2023-04-15T17:08:23;6.47;;;3.97;;
7211;SDS011;3647;48.792;9.802;2023-04-15T17:10:50;3.60;;;3.30;;
7211;SDS011;3647;48.792;9.802;2023-04-15T17:13:17;5.43;;;4.13;;
7211;SDS011;3647;48.792;9.802;2023-04-15T17:15:43;4.73;;;3.60;;
7211;SDS011;3647;48.792;9.802;2023-04-15T17:18:11;4.77;;;4.10;;
7211;SDS011;3647;48.792;9.802;2023-04-15T17:20:38;4.97;;;3.67;;
7211;SDS011;3647;48.792;9.802;2023-04-15T17:23:05;4.43;;;4.00;;
7211;SDS011;3647;48.792;9.802;2023-04-15T17:25:32;4.10;;;3.70;;
7211;SDS011;3647;48.792;9.802;2023-04-15T17:27:59;3.93;;;3.57;;
7211;SDS011;3647;48.792;9.802;2023-04-15T17:30:26;4.00;;;3.40;;
7211;SDS011;3647;48.792;9.802;2023-04-15T17:32:53;4.33;;;3.27;;
7211;SDS011;3647;48.792;9.802;2023-04-15T17:35:21;3.77;;;3.17;;
7211;SDS011;3647;48.792;9.802;2023-04-15T17:37:50;3.30;;;3.00;;
7211;SDS011;3647;48.792;9.802;2023-04-15T17:40:17;3.53;;;3.23;;
7211;SDS011;3647;48.792;9.802;2023-04-15T17:42:44;4.57;;;3.00;;
7211;SDS011;3647;48.792;9.802;2023-04-15T17:45:10;3.00;;;2.77;;
7211;SDS011;3647;48.792;9.802;2023-04-15T17:47:37;2.93;;;2.73;;
7211;SDS011;3647;48.792;9.802;2023-04-15T17:50:05;3.50;;;3.00;;
7211;SDS011;3647;48.792;9.802;2023-04-15T17:52:34;3.80;;;3.10;;
7211;SDS011;3647;48.792;9.802;2023-04-15T17:55:01;3.30;;;3.00;;
7211;SDS011;3647;48.792;9.802;2023-04-15T17:57:27;5.43;;;4.30;;
7211;SDS011;3647;48.792;9.802;2023-04-15T17:59:55;3.37;;;3.07;;
7211;SDS011;3647;48.792;9.802;2023-04-15T18:02:22;3.57;;;3.00;;
7211;SDS011;3647;48.792;9.802;2023-04-15T18:04:49;3.93;;;3.03;;
7211;SDS011;3647;48.792;9.802;2023-04-15T18:07:16;3.00;;;2.70;;
7211;SDS011;3647;48.792;9.802;2023-04-15T18:09:44;5.90;;;2.97;;
7211;SDS011;3647;48.792;9.802;2023-04-15T18:12:11;3.60;;;3.13;;
7211;SDS011;3647;48.792;9.802;2023-04-15T18:14:38;3.73;;;3.13;;
7211;SDS011;3647;48.792;9.802;2023-04-15T18:17:05;5.63;;;3.50;;
7211;SDS011;3647;48.792;9.802;2023-04-15T18:19:32;3.33;;;3.03;;
7211;SDS011;3647;48.792;9.802;2023-04-15T18:21:59;3.73;;;3.37;;
7211;SDS011;3647;48.792;9.802;2023-04-15T18:24:27;3.90;;;3.43;;
7211;SDS011;3647;48.792;9.802;2023-04-15T18:26:55;3.50;;;3.20;;
7211;SDS011;3647;48.792;9.802;2023-04-15T18:29:23;4.33;;;3.03;;
7211;SDS011;3647;48.792;9.802;2023-04-15T18:31:50;4.03;;;3.30;;
7211;SDS011;3647;48.792;9.802;2023-04-15T18:34:17;3.73;;;3.43;;
7211;SDS011;3647;48.792;9.802;2023-04-15T18:36:44;3.57;;;3.27;;
7211;SDS011;3647;48.792;9.802;2023-04-15T18:39:11;4.30;;;3.90;;
7211;SDS011;3647;48.792;9.802;2023-04-15T18:41:38;3.83;;;3.30;;
7211;SDS011;3647;48.792;9.802;2023-04-15T18:44:06;3.43;;;3.13;;
7211;SDS011;3647;48.792;9.802;2023-04-15T18:46:33;3.80;;;3.50;;
7211;SDS011;3647;48.792;9.802;2023-04-15T18:49:00;3.40;;;3.10;;
7211;SDS011;3647;48.792;9.802;2023-04-15T18:51:26;3.43;;;3.13;;
7211;SDS011;3647;48.792;9.802;2023-04-15T18:53:53;3.57;;;3.27;;
7211;SDS011;3647;48.792;9.802;2023-04-15T18:56:20;4.63;;;3.20;;
7211;SDS011;3647;48.792;9.802;2023-04-15T18:58:47;3.60;;;3.30;;
7211;SDS011;3647;48.792;9.802;2023-04-15T19:01:15;3.20;;;3.00;;
7211;SDS011;3647;48.792;9.802;2023-04-15T19:03:42;2.87;;;2.67;;
7211;SDS011;3647;48.792;9.802;2023-04-15T19:06:09;3.40;;;3.10;;
7211;SDS011;3647;48.792;9.802;2023-04-15T19:08:36;3.17;;;2.97;;
7211;SDS011;3647;48.792;9.802;2023-04-15T19:11:03;3.70;;;3.33;;
7211;SDS011;3647;48.792;9.802;2023-04-15T19:13:30;3.10;;;2.90;;
7211;SDS011;3647;48.792;9.802;2023-04-15T19:15:57;3.43;;;3.13;;
7211;SDS011;3647;48.792;9.802;2023-04-15T19:18:25;3.90;;;3.20;;
7211;SDS011;3647;48.792;9.802;2023-04-15T19:20:52;4.17;;;3.80;;
7211;SDS011;3647;48.792;9.802;2023-04-15T19:23:20;4.73;;;3.50;;
7211;SDS011;3647;48.792;9.802;2023-04-15T19:25:47;4.13;;;3.70;;
7211;SDS011;3647;48.792;9.802;2023-04-15T19:28:14;3.23;;;2.63;;
7211;SDS011;3647;48.792;9.802;2023-04-15T19:30:40;2.47;;;2.30;;
7211;SDS011;3647;48.792;9.802;2023-04-15T19:33:07;2.67;;;2.47;;
7211;SDS011;3647;48.792;9.802;2023-04-15T19:35:36;3.03;;;2.80;;
7211;SDS011;3647;48.792;9.802;2023-04-15T19:38:03;3.13;;;2.83;;
7211;SDS011;3647;48.792;9.802;2023-04-15T19:40:30;3.37;;;3.07;;
7211;SDS011;3647;48.792;9.802;2023-04-15T19:42:56;4.17;;;3.00;;
7211;SDS011;3647;48.792;9.802;2023-04-15T19:45:23;3.00;;;2.80;;
7211;SDS011;3647;48.792;9.802;2023-04-15T19:47:50;3.17;;;2.87;;
7211;SDS011;3647;48.792;9.802;2023-04-15T19:50:18;2.80;;;2.60;;
7211;SDS011;3647;48.792;9.802;2023-04-15T19:52:50;2.87;;;2.67;;
7211;SDS011;3647;48.792;9.802;2023-04-15T19:55:16;2.83;;;2.63;;
7211;SDS011;3647;48.792;9.802;2023-04-15T19:57:43;2.40;;;2.23;;
7211;SDS011;3647;48.792;9.802;2023-04-15T20:00:11;2.50;;;2.30;;
7211;SDS011;3647;48.792;9.802;2023-04-15T20:02:38;2.83;;;2.63;;
7211;SDS011;3647;48.792;9.802;2023-04-15T20:05:05;3.50;;;3.10;;
7211;SDS011;3647;48.792;9.802;2023-04-15T20:07:33;4.57;;;2.83;;
7211;SDS011;3647;48.792;9.802;2023-04-15T20:10:02;2.53;;;2.00;;
7211;SDS011;3647;48.792;9.802;2023-04-15T20:12:29;3.13;;;2.80;;
7211;SDS011;3647;48.792;9.802;2023-04-15T20:14:55;2.20;;;2.00;;